Time;durP1;ratioP1;P1;durP2;ratioP2;P2;SDS_P1;SDS_P2;PMS_P1;PMS_P2;Temp;Humidity;BMP_temperature;BMP_pressure;BME280_temperature;BME280_humidity;BME280_pressure;Samples;Min_cycle;Max_cycle;Signal;HPM_P1;HPM_P2
2023/02/13 00:01:47;;;;;;;12.97;9.87;;;10.70;99.90;;;;;;5335220;23;20502;-84
2023/02/13 00:04:23;;;;;;;16.97;11.40;;;10.60;99.90;;;;;;4984594;28;20443;-83
2023/02/13 00:07:24;;;;;;;12.07;9.27;;;10.80;99.90;;;;;;4957400;28;21104;-84
2023/02/13 00:10:16;;;;;;;15.70;10.63;;;10.90;99.90;;;;;;4968224;28;20534;-84
2023/02/13 00:13:06;;;;;;;15.63;9.50;;;10.90;99.90;;;;;;4950701;28;20452;-85
2023/02/13 00:16:08;;;;;;;15.43;10.40;;;10.90;99.90;;;;;;4961857;28;21295;-83
2023/02/13 00:18:50;;;;;;;14.53;10.00;;;10.80;99.90;;;;;;4965221;28;20483;-86
2023/02/13 00:22:11;;;;;;;14.20;9.60;;;10.70;99.90;;;;;;4966799;28;20491;-86
2023/02/13 00:24:49;;;;;;;15.10;9.40;;;10.80;99.90;;;;;;4966441;28;20578;-85
2023/02/13 00:28:03;;;;;;;11.23;8.33;;;10.90;99.90;;;;;;4950400;28;20459;-84
2023/02/13 00:30:59;;;;;;;15.33;10.40;;;10.90;99.90;;;;;;4926055;28;20507;-83
2023/02/13 00:33:32;;;;;;;15.93;9.40;;;10.90;99.90;;;;;;4941043;28;20559;-84
2023/02/13 00:39:47;;;;;;;12.67;8.50;;;10.90;99.90;;;;;;4962082;28;20430;-89
2023/02/13 00:42:17;;;;;;;10.43;8.13;;;10.70;99.90;;;;;;4944756;28;20491;-84
2023/02/13 00:44:47;;;;;;;13.37;8.87;;;10.80;99.90;;;;;;4941920;28;20468;-83
2023/02/13 00:47:31;;;;;;;14.23;9.80;;;10.80;99.90;;;;;;4944721;28;20452;-83
2023/02/13 00:50:16;;;;;;;11.90;8.20;;;10.70;99.90;;;;;;4946920;28;20519;-86
2023/02/13 00:53:04;;;;;;;12.33;9.10;;;10.70;99.90;;;;;;4944141;28;20974;-85
2023/02/13 00:55:43;;;;;;;14.07;10.17;;;10.60;99.90;;;;;;4944490;28;20448;-85
2023/02/13 00:58:16;;;;;;;14.00;8.37;;;10.50;99.90;;;;;;4943619;28;20506;-86
2023/02/13 01:00:46;;;;;;;13.90;9.00;;;10.70;99.90;;;;;;4942940;28;20575;-83
2023/02/13 01:03:14;;;;;;;11.23;8.70;;;10.60;99.90;;;;;;4942082;28;20883;-82
2023/02/13 01:05:47;;;;;;;11.47;8.33;;;10.60;99.90;;;;;;4941994;28;20464;-84
2023/02/13 01:08:20;;;;;;;9.50;7.63;;;10.60;99.90;;;;;;4963040;28;20464;-84
2023/02/13 01:10:55;;;;;;;9.97;6.90;;;10.80;99.90;;;;;;4960815;28;20578;-85
2023/02/13 01:13:27;;;;;;;12.80;9.40;;;10.60;99.90;;;;;;4943835;28;20546;-85
2023/02/13 01:15:54;;;;;;;11.80;8.13;;;10.60;99.90;;;;;;4941779;28;20472;-84
2023/02/13 01:18:24;;;;;;;11.00;7.60;;;10.50;99.90;;;;;;4939278;28;20583;-84
2023/02/13 01:21:18;;;;;;;13.97;8.20;;;10.60;99.90;;;;;;4943431;28;20488;-83
2023/02/13 01:23:50;;;;;;;12.00;8.10;;;10.70;99.90;;;;;;4961498;28;20464;-85
2023/02/13 01:26:22;;;;;;;11.17;8.57;;;10.70;99.90;;;;;;4943201;28;20476;-84
2023/02/13 01:28:54;;;;;;;11.63;7.50;;;10.70;99.90;;;;;;4956287;28;20486;-83
2023/02/13 01:31:26;;;;;;;8.77;7.10;;;10.80;99.90;;;;;;4945337;28;20494;-86
2023/02/13 01:34:02;;;;;;;10.70;7.97;;;10.60;99.90;;;;;;4945545;28;20515;-86
2023/02/13 01:36:33;;;;;;;12.27;8.10;;;10.70;99.90;;;;;;4941298;28;20463;-84
2023/02/13 01:39:02;;;;;;;9.93;7.57;;;10.70;99.90;;;;;;4943642;28;21051;-85
2023/02/13 01:41:32;;;;;;;10.97;7.60;;;10.50;99.90;;;;;;4947226;28;20555;-84
2023/02/13 01:44:00;;;;;;;13.00;8.50;;;10.60;99.90;;;;;;4971204;28;20469;-85
2023/02/13 01:46:45;;;;;;;10.87;7.27;;;10.60;99.90;;;;;;4954517;28;20495;-84
2023/02/13 01:49:26;;;;;;;8.70;7.03;;;10.70;99.90;;;;;;4966097;28;20479;-85
2023/02/13 01:51:56;;;;;;;10.33;7.60;;;10.60;99.90;;;;;;4958475;28;20488;-85
2023/02/13 01:54:32;;;;;;;12.83;7.73;;;10.60;99.90;;;;;;4941260;28;20500;-85
2023/02/13 01:57:17;;;;;;;12.20;7.80;;;10.60;99.90;;;;;;4959762;28;20537;-85
2023/02/13 02:00:00;;;;;;;11.07;8.07;;;10.60;99.90;;;;;;4942616;28;21050;-85
2023/02/13 02:02:46;;;;;;;11.17;8.70;;;10.50;99.90;;;;;;4941534;28;20486;-85
2023/02/13 02:05:33;;;;;;;9.50;7.07;;;10.40;99.90;;;;;;4936646;28;20518;-85
2023/02/13 02:08:03;;;;;;;12.13;9.10;;;10.60;99.90;;;;;;4958902;28;20574;-83
2023/02/13 02:10:33;;;;;;;10.70;8.60;;;10.60;99.90;;;;;;4961466;28;20555;-84
2023/02/13 02:13:19;;;;;;;10.00;7.43;;;10.40;99.90;;;;;;4942510;28;20526;-84
2023/02/13 02:15:57;;;;;;;12.57;8.50;;;10.40;99.90;;;;;;4957608;28;20467;-85
2023/02/13 02:18:30;;;;;;;9.23;6.67;;;10.60;99.90;;;;;;4941788;28;20868;-85
2023/02/13 02:21:22;;;;;;;9.50;7.43;;;10.60;99.90;;;;;;4938846;28;20829;-85
2023/02/13 02:24:30;;;;;;;8.70;6.77;;;10.60;99.90;;;;;;4942255;28;20472;-85
2023/02/13 02:27:05;;;;;;;9.80;7.20;;;10.50;99.90;;;;;;4959490;28;20464;-85
2023/02/13 02:29:38;;;;;;;9.03;7.73;;;10.40;99.90;;;;;;4940072;28;20538;-83
2023/02/13 02:32:45;;;;;;;11.97;7.80;;;10.20;99.90;;;;;;4960280;28;20487;-83
2023/02/13 02:35:16;;;;;;;12.27;8.40;;;10.40;99.90;;;;;;4940641;28;20483;-84
2023/02/13 02:38:12;;;;;;;9.40;7.30;;;10.50;99.90;;;;;;4957574;28;20499;-84
2023/02/13 02:41:43;;;;;;;9.83;8.30;;;10.40;99.90;;;;;;4956613;28;20484;-86
2023/02/13 02:50:35;;;;;;;10.03;6.90;;;10.40;99.90;;;;;;4959415;28;20480;-84
2023/02/13 02:53:38;;;;;;;8.83;7.70;;;10.50;99.90;;;;;;4941928;28;20984;-84
2023/02/13 02:56:21;;;;;;;10.13;7.63;;;10.40;99.90;;;;;;4958157;28;20463;-84
2023/02/13 03:06:17;;;;;;;7.60;6.50;;;10.70;99.90;;;;;;4884885;29;20456;-85
2023/02/13 03:14:59;;;;;;;11.43;8.50;;;10.50;99.90;;;;;;4967164;28;20574;-85
2023/02/13 03:25:01;;;;;;;9.20;7.60;;;10.40;99.90;;;;;;4922297;28;20460;-84
2023/02/13 03:31:40;;;;;;;9.93;7.77;;;10.40;99.90;;;;;;4906961;28;20564;-85
2023/02/13 03:37:53;;;;;;;10.00;7.87;;;10.30;99.90;;;;;;4889291;29;20497;-85
2023/02/13 03:38:13;;;;;;;9.00;7.20;;;10.40;99.90;;;;;;4901444;29;20677;-85
2023/02/13 03:41:17;;;;;;;8.80;7.90;;;10.60;99.90;;;;;;4889144;29;20474;-84
2023/02/13 03:44:27;;;;;;;9.97;8.03;;;10.50;99.90;;;;;;4898028;29;20462;-84
2023/02/13 03:47:31;;;;;;;11.00;8.40;;;10.40;99.90;;;;;;4914220;29;20442;-83
2023/02/13 03:50:26;;;;;;;11.40;8.10;;;10.30;99.90;;;;;;4910957;29;20511;-85
2023/02/13 03:53:24;;;;;;;10.77;7.57;;;10.40;99.90;;;;;;4927481;29;20482;-84
2023/02/13 04:02:49;;;;;;;10.13;7.90;;;10.10;99.90;;;;;;5349983;23;20526;-86
2023/02/13 04:06:06;;;;;;;11.63;9.20;;;10.00;99.90;;;;;;4945106;28;20480;-87
2023/02/13 04:09:16;;;;;;;9.70;7.97;;;10.20;99.90;;;;;;4881969;29;20471;-84
2023/02/13 04:12:38;;;;;;;12.07;9.50;;;10.20;99.90;;;;;;4857187;29;20482;-84
2023/02/13 04:16:22;;;;;;;9.83;7.97;;;10.20;99.90;;;;;;4863300;29;20504;-82
2023/02/13 04:19:38;;;;;;;11.80;8.60;;;10.20;99.90;;;;;;4883247;29;20454;-84
2023/02/13 04:22:17;;;;;;;11.27;9.70;;;10.30;99.90;;;;;;4971597;23;20497;-87
2023/02/13 04:25:07;;;;;;;10.93;8.93;;;10.20;99.90;;;;;;4951731;29;20497;-85
2023/02/13 04:28:21;;;;;;;;;;;;;;;;;;;;;
2023/02/13 04:33:49;;;;;;;12.17;8.83;;;10.10;99.90;;;;;;1410264;26;20576;-84
2023/02/13 04:39:59;;;;;;;13.10;9.60;;;10.20;99.90;;;;;;4987971;28;20453;-86
2023/02/13 04:42:55;;;;;;;13.17;9.80;;;10.20;99.90;;;;;;4961438;28;20557;-84
2023/02/13 04:46:00;;;;;;;12.53;9.30;;;10.10;99.90;;;;;;4946538;28;21904;-84
2023/02/13 04:49:00;;;;;;;;;;;;;;;;;;;;;
2023/02/13 04:51:38;;;;;;;13.57;9.57;;;10.00;99.90;;;;;;4967978;28;20566;-83
2023/02/13 04:57:15;;;;;;;14.53;10.37;;;9.80;99.90;;;;;;4967438;28;20528;-84
2023/02/13 05:00:09;;;;;;;15.10;9.80;;;9.90;99.90;;;;;;4955286;28;20430;-85
2023/02/13 05:03:43;;;;;;;12.90;10.07;;;9.80;99.90;;;;;;4939991;28;20487;-84
2023/02/13 05:06:39;;;;;;;12.40;9.00;;;9.80;99.90;;;;;;4952179;28;20472;-83
2023/02/13 05:09:16;;;;;;;13.63;10.23;;;9.70;99.90;;;;;;4943840;28;20471;-85
2023/02/13 05:12:29;;;;;;;;;;;;;;;;;;;;;
2023/02/13 05:15:13;;;;;;;15.67;11.23;;;9.80;99.90;;;;;;4948063;28;20480;-86
2023/02/13 05:18:03;;;;;;;16.87;11.47;;;9.80;99.90;;;;;;4936939;28;20906;-85
2023/02/13 05:23:21;;;;;;;16.73;10.87;;;9.70;99.90;;;;;;4939968;28;20488;-85
2023/02/13 05:24:33;;;;;;;15.40;11.13;;;9.80;99.90;;;;;;4949371;28;20579;-86
2023/02/13 05:27:18;;;;;;;13.93;11.03;;;9.90;99.90;;;;;;4909072;28;20491;-86
2023/02/13 05:30:11;;;;;;;13.20;10.27;;;10.10;99.90;;;;;;4943354;28;20487;-84
2023/02/13 05:32:50;;;;;;;13.70;10.63;;;9.90;99.90;;;;;;4938846;28;20546;-85
2023/02/13 05:35:41;;;;;;;14.60;9.73;;;9.70;99.90;;;;;;4935695;28;20492;-85
2023/02/13 05:38:18;;;;;;;11.73;9.30;;;9.70;99.90;;;;;;4940276;28;20472;-84
2023/02/13 05:41:06;;;;;;;11.90;10.27;;;9.70;99.90;;;;;;4935046;28;20470;-85
2023/02/13 05:44:00;;;;;;;21.63;10.90;;;9.70;99.90;;;;;;4934429;28;20581;-85
2023/02/13 05:47:11;;;;;;;14.83;10.93;;;9.70;99.90;;;;;;4935510;28;20508;-86
2023/02/13 05:49:49;;;;;;;13.73;9.93;;;9.80;99.90;;;;;;4950887;28;20785;-86
2023/02/13 05:52:29;;;;;;;13.60;11.20;;;9.80;99.90;;;;;;4935326;28;20494;-86
2023/02/13 05:55:22;;;;;;;13.87;10.93;;;9.60;99.90;;;;;;4951018;28;20484;-86
2023/02/13 05:58:12;;;;;;;;;;;;;;;;;;;;;
2023/02/13 06:00:57;;;;;;;16.20;10.70;;;9.50;99.90;;;;;;4954703;28;20481;-86
2023/02/13 06:03:46;;;;;;;17.87;11.00;;;9.60;99.90;;;;;;4935131;28;20456;-86
2023/02/13 06:07:09;;;;;;;16.03;10.40;;;9.70;99.90;;;;;;4849446;29;22252;-86
2023/02/13 06:10:19;;;;;;;13.33;10.00;;;9.70;99.90;;;;;;4841210;29;20453;-86
2023/02/13 06:13:08;;;;;;;16.27;12.57;;;9.60;99.90;;;;;;4797047;29;21522;-85
2023/02/13 06:16:05;;;;;;;15.47;11.17;;;9.70;99.90;;;;;;4801480;29;20649;-86
2023/02/13 06:18:48;;;;;;;13.07;9.83;;;9.60;99.90;;;;;;4815911;29;20471;-85
2023/02/13 06:21:37;;;;;;;18.60;12.93;;;9.60;99.90;;;;;;4797623;29;20499;-87
2023/02/13 06:24:27;;;;;;;15.90;11.53;;;9.30;99.90;;;;;;4832540;29;20543;-87
2023/02/13 06:27:16;;;;;;;14.87;10.97;;;9.40;99.90;;;;;;4832649;29;21052;-86
2023/02/13 06:29:54;;;;;;;17.10;11.53;;;9.30;99.90;;;;;;4851334;29;20456;-88
2023/02/13 06:32:53;;;;;;;16.47;12.47;;;9.10;99.90;;;;;;4821576;29;21802;-87
2023/02/13 06:35:29;;;;;;;14.43;11.23;;;9.00;99.90;;;;;;4824584;29;20519;-85
2023/02/13 06:38:28;;;;;;;14.40;10.70;;;9.10;99.90;;;;;;4871859;29;20473;-85
2023/02/13 06:41:25;;;;;;;17.20;11.30;;;9.00;99.90;;;;;;4862649;29;20534;-85
2023/02/13 06:44:11;;;;;;;14.60;10.13;;;9.00;99.90;;;;;;4892471;29;21135;-87
2023/02/13 06:46:49;;;;;;;18.43;11.87;;;9.00;99.90;;;;;;4901843;29;20470;-87
2023/02/13 06:49:55;;;;;;;15.40;10.37;;;9.20;99.90;;;;;;4898093;29;20566;-85
2023/02/13 06:53:10;;;;;;;15.37;11.00;;;9.20;99.90;;;;;;4903641;29;20470;-85
2023/02/13 06:55:53;;;;;;;13.50;9.83;;;9.20;99.90;;;;;;4903814;29;20502;-84
2023/02/13 06:58:53;;;;;;;14.80;10.10;;;9.20;99.90;;;;;;4899228;29;20467;-87
2023/02/13 07:02:05;;;;;;;15.23;9.93;;;9.20;99.90;;;;;;4909122;29;20479;-87
2023/02/13 07:15:33;;;;;;;15.13;9.53;;;9.40;99.90;;;;;;4992186;28;20502;-86
2023/02/13 07:18:40;;;;;;;12.97;9.67;;;9.30;99.90;;;;;;4959440;28;20648;-84
2023/02/13 07:22:00;;;;;;;13.00;8.90;;;9.20;99.90;;;;;;4924116;29;20482;-86
2023/02/13 07:24:54;;;;;;;11.50;8.53;;;9.80;99.90;;;;;;4913168;29;20544;-85
2023/02/13 07:34:41;;;;;;;9.87;8.17;;;12.10;96.50;;;;;;4926080;29;20498;-85
2023/02/13 07:38:20;;;;;;;11.63;7.67;;;12.60;95.90;;;;;;4923701;29;21431;-86
2023/02/13 07:41:49;;;;;;;11.50;8.60;;;12.50;95.10;;;;;;4902660;29;20504;-86
2023/02/13 07:51:43;;;;;;;12.50;8.83;;;11.20;97.60;;;;;;4917276;28;20489;-84
2023/02/13 07:54:58;;;;;;;11.50;8.83;;;11.30;98.00;;;;;;4925909;28;20460;-84
2023/02/13 08:02:08;;;;;;;10.63;7.80;;;11.50;97.60;;;;;;4978600;28;20494;-86
2023/02/13 08:04:51;;;;;;;12.60;9.83;;;11.80;96.70;;;;;;4891505;28;21294;-86
2023/02/13 08:07:43;;;;;;;;;;;;;;;;;;;;;
2023/02/13 08:18:09;;;;;;;13.57;10.00;;;10.00;99.90;;;;;;4944511;28;20459;-86
2023/02/13 08:20:48;;;;;;;12.47;8.70;;;9.70;99.90;;;;;;4919101;28;20492;-84
2023/02/13 08:23:50;;;;;;;14.83;10.40;;;9.70;99.90;;;;;;4927353;28;20440;-86
2023/02/13 08:26:50;;;;;;;;;;;;;;;;;;;;;
2023/02/13 08:29:56;;;;;;;12.40;9.17;;;9.80;99.90;;;;;;4939630;28;20973;-85
2023/02/13 08:33:15;;;;;;;12.60;9.90;;;9.60;99.90;;;;;;4924010;28;20516;-85
2023/02/13 08:36:18;;;;;;;14.13;10.60;;;9.60;99.90;;;;;;4926084;28;20496;-86
2023/02/13 08:39:13;;;;;;;11.10;7.37;;;9.70;99.90;;;;;;4905095;28;20496;-84
2023/02/13 08:42:06;;;;;;;11.00;8.50;;;9.90;99.90;;;;;;4928826;28;20565;-85
2023/02/13 08:45:21;;;;;;;10.50;7.93;;;9.60;99.90;;;;;;4929924;28;20971;-86
2023/02/13 08:48:02;;;;;;;12.00;8.37;;;9.70;99.90;;;;;;4946830;28;20489;-85
2023/02/13 08:51:09;;;;;;;12.53;8.73;;;9.80;99.90;;;;;;4929015;28;20517;-85
2023/02/13 08:53:56;;;;;;;12.70;8.87;;;10.30;99.90;;;;;;4956034;28;20538;-86
2023/02/13 08:59:47;;;;;;;9.67;8.23;;;10.70;99.20;;;;;;4983916;28;20495;-84
2023/02/13 09:02:40;;;;;;;11.73;8.83;;;10.50;99.10;;;;;;4974243;28;20473;-85
2023/02/13 09:05:46;;;;;;;10.77;8.33;;;10.40;99.30;;;;;;4968247;28;20544;-85
2023/02/13 09:09:08;;;;;;;12.03;8.47;;;10.10;99.80;;;;;;4908257;28;20945;-85
2023/02/13 09:12:34;;;;;;;12.40;8.73;;;10.20;99.90;;;;;;4930885;28;20460;-85
2023/02/13 09:15:46;;;;;;;13.73;8.27;;;10.50;99.60;;;;;;4927238;28;21036;-86
2023/02/13 09:18:41;;;;;;;11.90;8.37;;;10.50;99.40;;;;;;4945784;28;20567;-86
2023/02/13 09:21:43;;;;;;;12.10;8.57;;;10.50;99.10;;;;;;4944271;28;20485;-86
2023/02/13 09:24:26;;;;;;;12.53;8.33;;;10.40;99.20;;;;;;4946263;28;20465;-86
2023/02/13 09:31:27;;;;;;;16.43;10.83;;;10.40;99.20;;;;;;4888660;29;20511;-85
2023/02/13 09:34:23;;;;;;;13.07;8.53;;;10.40;99.00;;;;;;4786559;29;20666;-85
2023/02/13 09:37:15;;;;;;;12.53;8.53;;;10.30;99.10;;;;;;4814643;29;20506;-85
2023/02/13 09:40:55;;;;;;;12.43;9.60;;;10.40;98.90;;;;;;4794588;29;20597;-85
2023/02/13 09:44:02;;;;;;;12.97;8.00;;;10.40;99.00;;;;;;4783284;29;20462;-85
2023/02/13 09:55:06;;;;;;;12.57;7.57;;;10.60;98.50;;;;;;4873061;29;20412;-86
2023/02/13 10:02:30;;;;;;;11.07;8.50;;;11.00;97.40;;;;;;4989434;23;20569;-87
2023/02/13 10:09:43;;;;;;;;;;;;;;;;;;;;;
2023/02/13 10:12:57;;;;;;;11.53;8.70;;;15.70;88.20;;;;;;4977376;28;20489;-84
2023/02/13 10:16:30;;;;;;;9.63;7.20;;;16.90;81.40;;;;;;4956402;28;20491;-85
2023/02/13 10:20:02;;;;;;;9.63;8.00;;;16.60;79.70;;;;;;4962765;28;20502;-84
2023/02/13 10:23:25;;;;;;;;;;;;;;;;;;;;;
2023/02/13 10:27:18;;;;;;;9.27;8.07;;;15.20;85.90;;;;;;4985786;28;20529;-84
2023/02/13 10:30:31;;;;;;;9.03;7.20;;;14.90;85.50;;;;;;4951220;28;20472;-84
2023/02/13 10:34:01;;;;;;;12.83;8.60;;;13.90;87.70;;;;;;4958916;28;21465;-86
2023/02/13 10:37:51;;;;;;;;;;;;;;;;;;;;;
2023/02/13 10:41:27;;;;;;;11.47;8.03;;;12.90;91.80;;;;;;4842418;29;20557;-85
2023/02/13 10:44:49;;;;;;;12.50;8.90;;;12.80;92.20;;;;;;4822984;29;20471;-83
2023/02/13 10:48:04;;;;;;;9.17;7.87;;;12.80;92.10;;;;;;4817004;29;21081;-86
2023/02/13 10:55:46;;;;;;;9.20;6.83;;;12.30;92.60;;;;;;4746876;30;20542;-86
2023/02/13 11:02:43;;;;;;;9.57;7.87;;;12.60;93.20;;;;;;4685980;30;20497;-86
2023/02/13 11:06:43;;;;;;;;;;;;;;;;;;;;;
2023/02/13 11:10:28;;;;;;;8.90;6.57;;;12.80;92.80;;;;;;4655209;30;20482;-84
2023/02/13 11:20:44;;;;;;;;;;;;;;;;;;;;;
2023/02/13 11:24:49;;;;;;;9.30;7.10;;;12.90;92.20;;;;;;4905183;28;20439;-84
2023/02/13 11:28:29;;;;;;;10.43;7.97;;;12.90;92.20;;;;;;4955784;28;20455;-86
2023/02/13 11:32:13;;;;;;;;;;;;;;;;;;;;;
2023/02/13 11:39:14;;;;;;;8.47;6.87;;;13.10;91.90;;;;;;4983048;28;20454;-85
2023/02/13 11:42:51;;;;;;;7.70;6.00;;;13.30;91.60;;;;;;4965988;28;20479;-86
2023/02/13 11:50:00;;;;;;;7.90;6.13;;;13.40;90.80;;;;;;4918859;29;20502;-87
2023/02/13 11:53:58;;;;;;;7.67;5.70;;;13.40;91.00;;;;;;4908741;29;20465;-85
2023/02/13 11:57:35;;;;;;;7.03;5.63;;;13.50;90.90;;;;;;4866609;29;20543;-84
2023/02/13 12:08:59;;;;;;;6.87;5.83;;;13.70;90.60;;;;;;4963297;28;20475;-84
2023/02/13 12:11:40;;;;;;;11.97;9.50;;;13.80;90.20;;;;;;4955519;28;20493;-87
2023/02/13 12:14:48;;;;;;;6.40;5.60;;;13.80;90.40;;;;;;4947376;28;20452;-85
2023/02/13 12:17:39;;;;;;;7.73;6.37;;;13.90;90.10;;;;;;4949153;28;20484;-86
2023/02/13 12:20:45;;;;;;;7.67;5.00;;;13.90;90.00;;;;;;4935473;28;20465;-86
2023/02/13 12:23:32;;;;;;;10.57;5.97;;;13.90;90.00;;;;;;4950404;28;20526;-86
2023/02/13 12:26:15;;;;;;;8.10;5.93;;;14.10;89.50;;;;;;4932513;28;20512;-85
2023/02/13 12:29:11;;;;;;;5.80;5.00;;;14.10;89.30;;;;;;4956817;28;20472;-85
2023/02/13 12:32:07;;;;;;;7.73;6.03;;;14.10;89.70;;;;;;4935936;28;21787;-85
2023/02/13 12:35:25;;;;;;;7.10;5.40;;;14.10;89.30;;;;;;4951492;28;20492;-84
2023/02/13 12:39:04;;;;;;;8.30;5.03;;;14.20;89.00;;;;;;4931555;28;20449;-84
2023/02/13 12:42:14;;;;;;;6.00;4.77;;;14.10;88.50;;;;;;4907480;28;20476;-85
2023/02/13 12:44:59;;;;;;;6.00;4.77;;;14.30;88.00;;;;;;4932209;28;20498;-86
2023/02/13 12:48:28;;;;;;;7.13;5.10;;;14.20;88.70;;;;;;4938570;28;20472;-84
2023/02/13 12:55:29;;;;;;;5.17;4.60;;;14.50;87.80;;;;;;4954696;28;20464;-85
2023/02/13 13:02:24;;;;;;;5.80;4.50;;;14.60;87.10;;;;;;4939899;28;20461;-85
2023/02/13 13:06:18;;;;;;;4.90;3.87;;;14.60;86.70;;;;;;4860303;29;20465;-86
2023/02/13 13:09:55;;;;;;;;;;;;;;;;;;;;;
2023/02/13 13:13:23;;;;;;;5.53;3.73;;;14.80;84.50;;;;;;4871412;29;20494;-85
2023/02/13 13:24:17;;;;;;;4.00;3.37;;;14.80;82.60;;;;;;4847724;29;20474;-84
2023/02/13 13:27:24;;;;;;;4.30;3.53;;;14.90;82.90;;;;;;4869944;29;20444;-85
2023/02/13 13:33:27;;;;;;;3.50;3.17;;;15.20;80.90;;;;;;4961103;28;20491;-87
2023/02/13 13:36:56;;;;;;;3.60;2.97;;;15.10;80.30;;;;;;4871355;29;20549;-86
2023/02/13 13:40:03;;;;;;;;;;;;;;;;;;;;;
2023/02/13 13:43:26;;;;;;;3.70;2.87;;;15.20;80.70;;;;;;4952471;28;20514;-88
2023/02/13 13:46:52;;;;;;;3.50;2.67;;;15.10;80.00;;;;;;4937517;28;21781;-88
2023/02/13 13:53:22;;;;;;;3.13;2.37;;;15.30;78.80;;;;;;4843037;29;20493;-86
2023/02/13 13:56:13;;;;;;;4.33;3.50;;;15.30;78.30;;;;;;4854910;29;20483;-82
2023/02/13 13:59:29;;;;;;;3.20;2.57;;;15.10;78.50;;;;;;4837540;29;21065;-86
2023/02/13 14:02:44;;;;;;;2.63;2.43;;;15.20;78.40;;;;;;4716614;30;20505;-86
2023/02/13 14:09:13;;;;;;;3.23;2.17;;;15.40;78.00;;;;;;4781246;29;20568;-87
2023/02/13 14:12:29;;;;;;;2.87;2.67;;;15.20;77.80;;;;;;4780618;29;20480;-86
2023/02/13 14:15:51;;;;;;;2.57;2.13;;;15.30;77.50;;;;;;4787334;29;20453;-86
2023/02/13 14:19:07;;;;;;;5.93;2.20;;;15.20;77.40;;;;;;4774682;29;20452;-88
2023/02/13 14:22:18;;;;;;;2.10;1.90;;;15.30;76.70;;;;;;4774040;29;20481;-86
2023/02/13 14:25:04;;;;;;;2.50;1.80;;;15.60;75.30;;;;;;4780042;29;20583;-87
2023/02/13 14:28:20;;;;;;;2.10;1.90;;;15.50;75.30;;;;;;4832847;29;20517;-85
2023/02/13 14:31:08;;;;;;;5.00;2.13;;;15.50;75.40;;;;;;4839593;29;20493;-85
2023/02/13 14:34:44;;;;;;;3.03;1.80;;;15.50;75.20;;;;;;4832103;29;20613;-86
2023/02/13 14:37:47;;;;;;;2.23;2.00;;;15.60;73.90;;;;;;4854634;29;20538;-84
2023/02/13 14:40:58;;;;;;;3.73;3.43;;;15.60;74.00;;;;;;4859956;29;20500;-86
2023/02/13 14:44:44;;;;;;;2.50;1.53;;;15.60;74.10;;;;;;4852228;29;21212;-84
2023/02/13 14:51:37;;;;;;;;;;;;;;;;;;;;;
2023/02/13 14:54:42;;;;;;;2.47;2.27;;;15.00;74.90;;;;;;4895236;29;20521;-82
2023/02/13 14:57:45;;;;;;;2.70;2.07;;;15.30;76.20;;;;;;4887855;29;20495;-83
2023/02/13 15:01:10;;;;;;;1.97;1.60;;;15.50;74.90;;;;;;4884299;29;20471;-86
2023/02/13 15:04:30;;;;;;;1.60;1.50;;;15.50;73.90;;;;;;4890263;29;20473;-82
2023/02/13 15:07:23;;;;;;;2.53;1.83;;;15.40;73.40;;;;;;4897773;29;20434;-83
2023/02/13 15:10:30;;;;;;;2.00;1.80;;;15.40;73.90;;;;;;4904865;29;20457;-83
2023/02/13 15:13:27;;;;;;;;;;;;;;;;;;;;;
2023/02/13 15:16:19;;;;;;;4.13;2.00;;;15.30;74.50;;;;;;4907698;29;20934;-83
2023/02/13 15:19:35;;;;;;;2.47;2.27;;;15.20;74.90;;;;;;4908701;28;20522;-83
2023/02/13 15:22:35;;;;;;;6.13;2.00;;;15.50;74.30;;;;;;4927282;28;20485;-84
2023/02/13 15:26:03;;;;;;;1.93;1.80;;;15.50;73.70;;;;;;4911052;29;20450;-84
2023/02/13 15:29:19;;;;;;;1.53;1.43;;;15.40;73.80;;;;;;4818202;29;20574;-84
2023/02/13 15:32:16;;;;;;;1.63;1.53;;;15.40;74.70;;;;;;4830338;29;20489;-84
2023/02/13 15:34:54;;;;;;;2.10;1.57;;;15.30;74.10;;;;;;4820202;29;20529;-84
2023/02/13 15:37:45;;;;;;;1.73;1.63;;;15.30;73.90;;;;;;4822184;29;20509;-84
2023/02/13 15:44:08;;;;;;;2.73;1.90;;;15.30;74.30;;;;;;4833829;29;20636;-83
2023/02/13 15:46:56;;;;;;;1.77;1.50;;;15.40;74.70;;;;;;4820603;29;20466;-85
2023/02/13 15:49:49;;;;;;;1.60;1.50;;;15.30;74.50;;;;;;4791568;29;20987;-85
2023/02/13 15:52:50;;;;;;;2.00;1.90;;;15.40;75.40;;;;;;4811676;29;20466;-83
2023/02/13 15:55:40;;;;;;;16.97;11.27;;;15.30;74.70;;;;;;4817125;29;20533;-84
2023/02/13 15:59:00;;;;;;;6.33;4.10;;;15.30;74.80;;;;;;4830131;29;20466;-85
2023/02/13 16:02:05;;;;;;;1.43;1.33;;;15.30;74.50;;;;;;4896737;29;20482;-85
2023/02/13 16:05:00;;;;;;;2.33;2.03;;;15.30;74.50;;;;;;4896315;29;20445;-84
2023/02/13 16:07:58;;;;;;;3.80;1.47;;;15.20;74.20;;;;;;4901250;29;20462;-83
2023/02/13 16:10:40;;;;;;;3.20;2.00;;;15.10;74.00;;;;;;4893601;29;20455;-84
2023/02/13 16:13:27;;;;;;;1.90;1.53;;;15.10;74.80;;;;;;4895106;29;20485;-85
2023/02/13 16:16:18;;;;;;;2.40;1.90;;;15.10;75.80;;;;;;4912825;29;20459;-83
2023/02/13 16:19:31;;;;;;;2.60;2.23;;;15.10;76.40;;;;;;4890539;29;20443;-84
2023/02/13 16:22:32;;;;;;;4.13;2.50;;;14.90;77.50;;;;;;4889156;29;20518;-83
2023/02/13 16:25:54;;;;;;;;;;;;;;;;;;;;;
2023/02/13 16:28:58;;;;;;;;;;;;;;;;;;;;;
2023/02/13 16:31:33;;;;;;;3.60;2.87;;;14.80;80.90;;;;;;4909740;29;20529;-83
2023/02/13 16:38:13;;;;;;;2.57;2.37;;;14.50;82.90;;;;;;4883225;29;20887;-86
2023/02/13 16:41:20;;;;;;;4.40;3.23;;;14.50;82.30;;;;;;4882051;29;20458;-85
2023/02/13 16:44:36;;;;;;;3.97;3.17;;;14.50;83.20;;;;;;4831864;29;20562;-82
2023/02/13 16:47:32;;;;;;;4.90;3.00;;;14.40;83.70;;;;;;4881024;29;20470;-84
2023/02/13 16:50:32;;;;;;;3.60;3.30;;;14.30;84.10;;;;;;4892542;29;20499;-83
2023/02/13 16:53:32;;;;;;;2.93;2.70;;;14.10;84.40;;;;;;4896748;29;20856;-83
2023/02/13 16:56:55;;;;;;;4.37;3.70;;;14.20;85.10;;;;;;4897192;29;20458;-83
2023/02/13 16:59:33;;;;;;;4.83;3.70;;;14.10;85.30;;;;;;4893049;29;20471;-83
2023/02/13 17:11:31;;;;;;;3.33;3.03;;;13.90;86.60;;;;;;4925874;28;20468;-84
2023/02/13 17:14:18;;;;;;;4.03;3.40;;;13.70;87.30;;;;;;4929083;28;20439;-84
2023/02/13 17:17:08;;;;;;;5.07;3.90;;;13.80;87.50;;;;;;4944838;28;20488;-85
2023/02/13 17:19:53;;;;;;;4.77;3.60;;;13.70;87.40;;;;;;4944321;28;20476;-85
2023/02/13 17:23:13;;;;;;;4.20;3.80;;;13.80;88.20;;;;;;4958118;28;20476;-84
2023/02/13 17:25:59;;;;;;;3.70;3.30;;;13.80;87.70;;;;;;4935045;28;20455;-85
2023/02/13 17:29:30;;;;;;;;;;;;;;;;;;;;;
2023/02/13 17:32:48;;;;;;;5.40;3.50;;;13.30;89.60;;;;;;4960338;28;20527;-85
2023/02/13 17:35:44;;;;;;;4.57;3.50;;;13.20;90.20;;;;;;4950189;28;22837;-85
2023/02/13 17:39:08;;;;;;;4.60;3.90;;;13.30;90.30;;;;;;4967510;28;20484;-86
2023/02/13 17:42:11;;;;;;;4.40;3.50;;;13.30;90.10;;;;;;4932474;28;20460;-85
2023/02/13 17:44:39;;;;;;;7.43;4.10;;;13.40;90.10;;;;;;4955202;28;20515;-84
2023/02/13 17:47:29;;;;;;;4.33;4.03;;;13.10;90.30;;;;;;4948343;28;20464;-85
2023/02/13 17:50:08;;;;;;;4.07;3.60;;;13.40;90.20;;;;;;4943745;28;20452;-85
2023/02/13 17:53:07;;;;;;;4.13;3.73;;;13.40;89.80;;;;;;4965044;28;20512;-84
2023/02/13 17:56:12;;;;;;;;;;;;;;;;;;;;;
2023/02/13 17:58:46;;;;;;;4.07;3.67;;;12.90;90.70;;;;;;4961545;28;20551;-85
2023/02/13 18:01:41;;;;;;;4.43;4.00;;;12.80;91.20;;;;;;4933360;28;20460;-85
2023/02/13 18:04:28;;;;;;;6.50;4.37;;;12.70;91.40;;;;;;4962673;28;20428;-84
2023/02/13 18:07:30;;;;;;;4.93;4.13;;;12.70;91.50;;;;;;4946377;28;20550;-85
2023/02/13 18:10:06;;;;;;;7.93;4.40;;;12.80;91.40;;;;;;4934427;28;20972;-85
2023/02/13 18:12:43;;;;;;;6.47;4.07;;;12.80;91.10;;;;;;4950719;28;20476;-84
2023/02/13 18:16:05;;;;;;;5.43;3.70;;;12.80;90.70;;;;;;4961219;28;20536;-85
2023/02/13 18:18:48;;;;;;;4.30;2.97;;;12.70;90.60;;;;;;4975690;28;20459;-83
2023/02/13 18:21:55;;;;;;;9.03;5.03;;;12.70;90.50;;;;;;4947491;28;20464;-83
2023/02/13 18:25:02;;;;;;;6.03;4.73;;;12.90;90.30;;;;;;4959678;28;20529;-86
2023/02/13 18:27:55;;;;;;;5.97;4.20;;;12.60;90.30;;;;;;4944980;28;20456;-84
2023/02/13 18:34:19;;;;;;;;;;;;;;;;;;;;;
2023/02/13 18:37:46;;;;;;;5.20;3.80;;;12.40;91.30;;;;;;5054548;23;20519;-85
2023/02/13 18:40:43;;;;;;;5.37;4.83;;;12.40;91.10;;;;;;4861392;29;20594;-84
2023/02/13 18:43:10;;;;;;;4.67;4.27;;;12.30;91.30;;;;;;4986289;23;21681;-85
2023/02/13 18:46:09;;;;;;;5.00;3.80;;;12.40;91.60;;;;;;4954667;28;20471;-82
2023/02/13 18:48:54;;;;;;;3.93;3.57;;;12.60;91.00;;;;;;4960997;28;20575;-84
2023/02/13 18:51:27;;;;;;;4.77;4.20;;;12.80;90.60;;;;;;4961063;28;20460;-84
2023/02/13 18:54:23;;;;;;;5.50;4.03;;;12.80;90.30;;;;;;4947859;28;20872;-84
2023/02/13 18:57:05;;;;;;;4.20;3.83;;;12.60;90.60;;;;;;4959429;28;20538;-84
2023/02/13 18:59:52;;;;;;;5.40;4.63;;;12.50;90.70;;;;;;4946337;28;20444;-83
2023/02/13 19:02:39;;;;;;;4.60;3.83;;;12.50;90.80;;;;;;4961389;28;20571;-83
2023/02/13 19:05:47;;;;;;;5.07;4.20;;;12.40;91.00;;;;;;4944703;28;20467;-84